Time;durP1;ratioP1;P1;durP2;ratioP2;P2;SDS_P1;SDS_P2;PMS_P1;PMS_P2;Temp;Humidity;BMP_temperature;BMP_pressure;BME280_temperature;BME280_humidity;BME280_pressure;Samples;Min_cycle;Max_cycle;Signal;HPM_P1;HPM_P2
2022/10/13 00:00:44;;;;;;;;;25.33;20.00;;;;;;;;5073318;28;45788;-79
2022/10/13 00:03:10;;;;;;;;;20.00;17.67;;;;;;;;5072744;28;45642;-76
2022/10/13 00:05:39;;;;;;;;;22.67;16.67;;;;;;;;5061928;28;45460;-76
2022/10/13 00:08:04;;;;;;;;;22.00;19.00;;;;;;;;5074692;28;45732;-79
2022/10/13 00:10:30;;;;;;;;;16.33;16.00;;;;;;;;5074399;27;45492;-77
2022/10/13 00:12:55;;;;;;;;;13.33;13.00;;;;;;;;5074296;28;46656;-77
2022/10/13 00:15:20;;;;;;;;;18.33;17.00;;;;;;;;5074799;28;45481;-78
2022/10/13 00:17:45;;;;;;;;;25.33;23.00;;;;;;;;5075183;27;45570;-75
2022/10/13 00:20:11;;;;;;;;;22.33;19.67;;;;;;;;5055318;28;46178;-76
2022/10/13 00:22:37;;;;;;;;;29.33;25.67;;;;;;;;5073595;28;45739;-77
2022/10/13 00:25:02;;;;;;;;;30.00;25.67;;;;;;;;5072482;28;45739;-76
2022/10/13 00:27:28;;;;;;;;;30.67;27.33;;;;;;;;5055763;28;46156;-76
2022/10/13 00:29:53;;;;;;;;;32.67;28.00;;;;;;;;5074807;28;46714;-76
2022/10/13 00:32:18;;;;;;;;;28.67;27.00;;;;;;;;5055750;28;46847;-77
2022/10/13 00:34:44;;;;;;;;;32.33;27.33;;;;;;;;5054767;28;45518;-78
2022/10/13 00:37:09;;;;;;;;;27.67;23.67;;;;;;;;5073965;28;45627;-78
2022/10/13 00:39:35;;;;;;;;;30.67;27.00;;;;;;;;5055399;28;45770;-77
2022/10/13 00:42:00;;;;;;;;;33.00;23.33;;;;;;;;5076635;28;45385;-78
2022/10/13 00:44:44;;;;;;;;;29.33;27.67;;;;;;;;5085051;27;45749;-78
2022/10/13 00:47:10;;;;;;;;;30.00;27.33;;;;;;;;5074610;28;45620;-77
2022/10/13 00:49:35;;;;;;;;;36.00;29.00;;;;;;;;5083920;27;45355;-77
2022/10/13 00:52:00;;;;;;;;;23.33;21.00;;;;;;;;5062531;28;45796;-76
2022/10/13 00:54:26;;;;;;;;;24.33;20.67;;;;;;;;5088769;27;45576;-76
2022/10/13 00:56:52;;;;;;;;;24.33;21.33;;;;;;;;5076936;27;45346;-77
2022/10/13 00:59:25;;;;;;;;;20.67;17.67;;;;;;;;5068341;27;45386;-76
2022/10/13 01:01:51;;;;;;;;;25.67;21.67;;;;;;;;5047697;27;46213;-77
2022/10/13 01:04:18;;;;;;;;;23.67;19.33;;;;;;;;5071648;27;45334;-77
2022/10/13 01:06:44;;;;;;;;;18.50;17.50;;;;;;;;5070558;27;45584;-76
2022/10/13 01:09:09;;;;;;;;;19.00;18.00;;;;;;;;5062937;28;45812;-76
2022/10/13 01:11:42;;;;;;;;;23.00;18.00;;;;;;;;5058962;28;46747;-77
2022/10/13 01:14:22;;;;;;;;;15.67;14.67;;;;;;;;5068619;28;45901;-76
2022/10/13 01:16:54;;;;;;;;;23.00;21.00;;;;;;;;5057663;28;45435;-77
2022/10/13 01:19:31;;;;;;;;;26.33;18.00;;;;;;;;5060351;28;45509;-78
2022/10/13 01:22:15;;;;;;;;;29.00;27.33;;;;;;;;5071047;27;45425;-77
2022/10/13 01:24:45;;;;;;;;;21.67;20.33;;;;;;;;5077567;27;45504;-77
2022/10/13 01:27:16;;;;;;;;;28.67;24.00;;;;;;;;5070852;28;45741;-76
2022/10/13 01:29:52;;;;;;;;;22.00;18.00;;;;;;;;5074829;27;45539;-76
2022/10/13 01:32:17;;;;;;;;;23.67;20.33;;;;;;;;5080900;27;45362;-78
2022/10/13 01:34:56;;;;;;;;;19.33;17.00;;;;;;;;5075958;28;45922;-77
2022/10/13 01:37:28;;;;;;;;;22.67;21.33;;;;;;;;5061995;28;45826;-77
2022/10/13 01:40:04;;;;;;;;;16.67;16.00;;;;;;;;5081255;27;45520;-79
2022/10/13 01:42:34;;;;;;;;;37.00;30.67;;;;;;;;5079670;28;45810;-76
2022/10/13 01:45:01;;;;;;;;;20.33;17.00;;;;;;;;5058507;28;45575;-78
2022/10/13 01:47:27;;;;;;;;;17.33;16.67;;;;;;;;5075871;28;45752;-76
2022/10/13 01:49:54;;;;;;;;;24.00;17.67;;;;;;;;5071153;28;45938;-76
2022/10/13 01:52:21;;;;;;;;;23.33;18.00;;;;;;;;5073936;27;46888;-77
2022/10/13 01:54:48;;;;;;;;;19.33;15.33;;;;;;;;5061914;27;45723;-77
2022/10/13 01:57:32;;;;;;;;;20.67;17.33;;;;;;;;5066329;28;46076;-76
2022/10/13 02:00:00;;;;;;;;;15.00;15.00;;;;;;;;5067855;27;45830;-76
2022/10/13 02:02:36;;;;;;;;;18.33;15.00;;;;;;;;5074228;28;45418;-75
2022/10/13 02:05:24;;;;;;;;;17.00;15.00;;;;;;;;5066834;28;45430;-77
2022/10/13 02:08:01;;;;;;;;;20.67;14.67;;;;;;;;5065195;28;45419;-77
2022/10/13 02:10:30;;;;;;;;;23.33;19.33;;;;;;;;5067656;28;45313;-76
2022/10/13 02:12:58;;;;;;;;;19.33;12.00;;;;;;;;5080977;27;45496;-77
2022/10/13 02:15:27;;;;;;;;;17.33;17.33;;;;;;;;5064210;28;45669;-77
2022/10/13 02:17:53;;;;;;;;;11.67;11.67;;;;;;;;5078233;27;45809;-75
2022/10/13 02:20:19;;;;;;;;;19.33;17.67;;;;;;;;5051816;28;45578;-75
2022/10/13 02:22:46;;;;;;;;;21.00;19.00;;;;;;;;5077666;27;45510;-77
2022/10/13 02:25:11;;;;;;;;;16.00;15.00;;;;;;;;5079761;27;45520;-76
2022/10/13 02:27:37;;;;;;;;;19.33;16.33;;;;;;;;5073520;28;45718;-78
2022/10/13 02:30:03;;;;;;;;;18.67;15.67;;;;;;;;5061447;27;45506;-78
2022/10/13 02:32:28;;;;;;;;;17.00;14.67;;;;;;;;5060344;28;46439;-78
2022/10/13 02:34:53;;;;;;;;;19.00;13.67;;;;;;;;5070375;28;45701;-80
2022/10/13 02:37:19;;;;;;;;;17.33;16.33;;;;;;;;5078379;27;45993;-79
2022/10/13 02:39:44;;;;;;;;;15.67;14.67;;;;;;;;5078853;28;45743;-75
2022/10/13 02:42:09;;;;;;;;;19.00;18.00;;;;;;;;5079782;27;45482;-77
2022/10/13 02:44:35;;;;;;;;;20.67;18.67;;;;;;;;5078162;27;45757;-76
2022/10/13 02:47:00;;;;;;;;;21.67;21.67;;;;;;;;5062529;27;45423;-76
2022/10/13 02:49:25;;;;;;;;;28.67;23.67;;;;;;;;5084432;27;45629;-76
2022/10/13 02:51:52;;;;;;;;;30.33;27.00;;;;;;;;5068883;28;46156;-75
2022/10/13 02:54:17;;;;;;;;;23.33;20.33;;;;;;;;5061855;28;45427;-73
2022/10/13 02:56:43;;;;;;;;;21.67;20.67;;;;;;;;5060407;27;46067;-76
2022/10/13 02:59:09;;;;;;;;;22.00;21.33;;;;;;;;5084650;27;45377;-75
2022/10/13 03:01:39;;;;;;;;;19.33;19.00;;;;;;;;5106491;27;46996;-75
2022/10/13 03:04:05;;;;;;;;;22.67;18.33;;;;;;;;5080898;27;45776;-74
2022/10/13 03:06:30;;;;;;;;;19.33;15.00;;;;;;;;5079844;28;45358;-75
2022/10/13 03:08:56;;;;;;;;;27.67;23.67;;;;;;;;5078936;28;45539;-76
2022/10/13 03:11:21;;;;;;;;;27.33;24.67;;;;;;;;5093600;27;45523;-76
2022/10/13 03:13:46;;;;;;;;;16.00;15.00;;;;;;;;5088636;27;45409;-76
2022/10/13 03:16:12;;;;;;;;;21.00;18.33;;;;;;;;5089124;27;45465;-76
2022/10/13 03:18:37;;;;;;;;;20.33;17.33;;;;;;;;5090084;27;45463;-78
2022/10/13 03:21:04;;;;;;;;;20.67;18.67;;;;;;;;5090390;27;46086;-76
2022/10/13 03:23:30;;;;;;;;;19.33;16.67;;;;;;;;5075468;28;45762;-79
2022/10/13 03:25:55;;;;;;;;;20.00;13.33;;;;;;;;5080586;27;45727;-77
2022/10/13 03:28:21;;;;;;;;;18.67;15.67;;;;;;;;5079721;28;45319;-77
2022/10/13 03:30:46;;;;;;;;;15.00;13.33;;;;;;;;5081755;27;45674;-78
2022/10/13 03:33:12;;;;;;;;;16.00;14.33;;;;;;;;5071040;28;45392;-78
2022/10/13 03:35:37;;;;;;;;;13.00;11.33;;;;;;;;5082200;27;45438;-76
2022/10/13 03:38:03;;;;;;;;;13.33;13.33;;;;;;;;5062742;28;46600;-77
2022/10/13 03:40:28;;;;;;;;;11.33;11.33;;;;;;;;5080919;27;46477;-77
2022/10/13 03:42:53;;;;;;;;;12.33;9.00;;;;;;;;5053468;28;45365;-76
2022/10/13 03:45:19;;;;;;;;;15.67;11.33;;;;;;;;5069156;27;45956;-77
2022/10/13 03:47:44;;;;;;;;;13.67;13.00;;;;;;;;5066527;28;45795;-75
2022/10/13 03:50:10;;;;;;;;;16.00;15.33;;;;;;;;5044795;28;46624;-76
2022/10/13 03:52:35;;;;;;;;;20.00;14.33;;;;;;;;5076408;28;45740;-76
2022/10/13 03:55:01;;;;;;;;;3.33;3.33;;;;;;;;5084148;27;45520;-78
2022/10/13 03:57:26;;;;;;;;;17.00;16.67;;;;;;;;5079229;28;45386;-76
2022/10/13 03:59:51;;;;;;;;;21.00;15.33;;;;;;;;5086268;27;45291;-76
2022/10/13 04:02:17;;;;;;;;;17.67;15.33;;;;;;;;5078655;28;45715;-76
2022/10/13 04:04:42;;;;;;;;;15.33;13.00;;;;;;;;5062964;27;45522;-76
2022/10/13 04:07:07;;;;;;;;;16.33;14.33;;;;;;;;5084009;27;45367;-78
2022/10/13 04:09:33;;;;;;;;;17.33;15.00;;;;;;;;5091853;27;46206;-77
2022/10/13 04:11:58;;;;;;;;;19.33;18.67;;;;;;;;5089109;27;45948;-76
2022/10/13 04:14:24;;;;;;;;;21.33;17.33;;;;;;;;5071519;27;45850;-76
2022/10/13 04:16:49;;;;;;;;;21.33;20.00;;;;;;;;5086251;27;45732;-77
2022/10/13 04:19:14;;;;;;;;;17.33;15.67;;;;;;;;5074834;27;45438;-78
2022/10/13 04:21:40;;;;;;;;;19.67;16.33;;;;;;;;5064672;27;45528;-78
2022/10/13 04:24:05;;;;;;;;;18.67;17.33;;;;;;;;5075015;28;45438;-78
2022/10/13 04:26:32;;;;;;;;;25.33;18.33;;;;;;;;5088923;27;45720;-80
2022/10/13 04:28:58;;;;;;;;;24.67;19.67;;;;;;;;5088790;27;45593;-77
2022/10/13 04:31:24;;;;;;;;;17.67;13.67;;;;;;;;5077101;27;45468;-76
2022/10/13 04:33:50;;;;;;;;;17.00;16.00;;;;;;;;5077869;28;45241;-77
2022/10/13 04:36:16;;;;;;;;;20.00;15.00;;;;;;;;5079710;28;45711;-77
2022/10/13 04:38:41;;;;;;;;;19.00;15.33;;;;;;;;5079862;28;45581;-80
2022/10/13 04:41:07;;;;;;;;;21.33;17.33;;;;;;;;5052532;28;45795;-79
2022/10/13 04:43:33;;;;;;;;;16.67;16.00;;;;;;;;5062995;27;45365;-78
2022/10/13 04:46:00;;;;;;;;;14.00;14.00;;;;;;;;5086891;27;45522;-77
2022/10/13 04:48:26;;;;;;;;;16.67;14.67;;;;;;;;5090265;27;45889;-78
2022/10/13 04:51:01;;;;;;;;;18.67;17.00;;;;;;;;5079539;28;45411;-79
2022/10/13 04:53:28;;;;;;;;;17.33;16.67;;;;;;;;5083123;27;45572;-77
2022/10/13 04:55:55;;;;;;;;;15.33;14.00;;;;;;;;5081794;27;45594;-77
2022/10/13 04:58:20;;;;;;;;;17.33;13.67;;;;;;;;5054394;28;47715;-80
2022/10/13 05:00:46;;;;;;;;;16.33;11.33;;;;;;;;5051177;28;45777;-77
2022/10/13 05:03:12;;;;;;;;;14.67;11.33;;;;;;;;5072240;27;45339;-79
2022/10/13 05:05:38;;;;;;;;;16.67;15.33;;;;;;;;5065060;28;45747;-78
2022/10/13 05:08:04;;;;;;;;;17.33;15.67;;;;;;;;5069960;27;46069;-77
2022/10/13 05:10:30;;;;;;;;;14.33;12.00;;;;;;;;5070806;27;45676;-79
2022/10/13 05:12:55;;;;;;;;;11.00;9.33;;;;;;;;5077916;27;44788;-77
2022/10/13 05:15:21;;;;;;;;;13.67;9.00;;;;;;;;5064533;28;45563;-82
2022/10/13 05:17:47;;;;;;;;;9.67;8.67;;;;;;;;5076833;28;45485;-83
2022/10/13 05:20:13;;;;;;;;;17.00;10.67;;;;;;;;5058087;28;45357;-77
2022/10/13 05:22:45;;;;;;;;;8.67;8.67;;;;;;;;5078033;28;45895;-78
2022/10/13 05:25:10;;;;;;;;;14.67;8.67;;;;;;;;5078304;28;45415;-80
2022/10/13 05:27:35;;;;;;;;;8.67;7.67;;;;;;;;5081734;27;46778;-81
2022/10/13 05:30:01;;;;;;;;;14.33;12.00;;;;;;;;5080943;27;45870;-80
2022/10/13 05:32:27;;;;;;;;;12.67;9.33;;;;;;;;5082836;28;44767;-82
2022/10/13 05:34:53;;;;;;;;;8.33;7.67;;;;;;;;5085498;28;45450;-81
2022/10/13 05:37:22;;;;;;;;;11.33;9.00;;;;;;;;5096388;27;45647;-82
2022/10/13 05:39:48;;;;;;;;;15.00;13.67;;;;;;;;5081566;27;45497;-80
2022/10/13 05:42:14;;;;;;;;;11.33;10.67;;;;;;;;5085632;28;45227;-83
2022/10/13 05:44:46;;;;;;;;;10.67;10.67;;;;;;;;5077578;27;45509;-85
2022/10/13 05:47:12;;;;;;;;;8.33;7.00;;;;;;;;5058317;28;47486;-80
2022/10/13 05:49:45;;;;;;;;;10.67;8.33;;;;;;;;5103856;27;45451;-85
2022/10/13 05:52:11;;;;;;;;;10.33;9.67;;;;;;;;5092908;27;45568;-79
2022/10/13 05:54:45;;;;;;;;;8.67;7.67;;;;;;;;5078929;28;45762;-80
2022/10/13 05:57:16;;;;;;;;;9.33;9.33;;;;;;;;5086683;28;45276;-77
2022/10/13 05:59:52;;;;;;;;;7.67;6.33;;;;;;;;5086000;28;45723;-79
2022/10/13 06:02:18;;;;;;;;;10.67;9.00;;;;;;;;5076907;28;44804;-81
2022/10/13 06:04:46;;;;;;;;;7.33;7.33;;;;;;;;5089909;28;45827;-81
2022/10/13 06:07:17;;;;;;;;;10.67;8.33;;;;;;;;5088241;28;45420;-84
2022/10/13 06:09:43;;;;;;;;;7.00;6.00;;;;;;;;5063225;28;45557;-81
2022/10/13 06:12:12;;;;;;;;;13.00;8.67;;;;;;;;5065046;28;45370;-84
2022/10/13 06:14:37;;;;;;;;;10.00;8.33;;;;;;;;5050053;28;45610;-84
2022/10/13 06:17:06;;;;;;;;;9.33;8.33;;;;;;;;5077841;28;45412;-81
2022/10/13 06:19:36;;;;;;;;;8.00;6.33;;;;;;;;5060921;28;45392;-82
2022/10/13 06:22:06;;;;;;;;;5.33;5.33;;;;;;;;5066306;28;44766;-81
2022/10/13 06:24:40;;;;;;;;;9.00;8.00;;;;;;;;5068813;28;45752;-77
2022/10/13 06:27:06;;;;;;;;;10.33;8.33;;;;;;;;5039249;28;45554;-75
2022/10/13 06:29:32;;;;;;;;;8.33;6.33;;;;;;;;5060538;28;44765;-78
2022/10/13 06:31:58;;;;;;;;;6.00;5.00;;;;;;;;5046308;28;45499;-77
2022/10/13 06:34:23;;;;;;;;;10.00;7.00;;;;;;;;5058166;28;45983;-78
2022/10/13 06:36:49;;;;;;;;;10.00;7.00;;;;;;;;5067205;28;45855;-81
2022/10/13 06:39:15;;;;;;;;;6.00;6.00;;;;;;;;5077458;28;45475;-82
2022/10/13 06:41:43;;;;;;;;;6.67;5.67;;;;;;;;5072768;28;45347;-82
2022/10/13 06:44:08;;;;;;;;;9.67;7.67;;;;;;;;5049080;28;46738;-82
2022/10/13 06:46:34;;;;;;;;;5.33;5.33;;;;;;;;5071554;28;45867;-78
2022/10/13 06:49:02;;;;;;;;;15.33;6.00;;;;;;;;5057638;28;44774;-79
2022/10/13 06:51:27;;;;;;;;;8.67;6.33;;;;;;;;5053511;28;45775;-76
2022/10/13 06:53:54;;;;;;;;;6.67;5.33;;;;;;;;5083200;28;44917;-81
2022/10/13 06:56:19;;;;;;;;;9.33;7.67;;;;;;;;5071875;28;45809;-80
2022/10/13 06:58:44;;;;;;;;;7.67;7.67;;;;;;;;5078696;28;45519;-82
2022/10/13 07:01:11;;;;;;;;;8.00;6.33;;;;;;;;5054071;28;44893;-83
2022/10/13 07:03:36;;;;;;;;;9.67;8.67;;;;;;;;5070070;28;46024;-81
2022/10/13 07:06:02;;;;;;;;;7.33;6.00;;;;;;;;5073967;28;45350;-84
2022/10/13 07:08:28;;;;;;;;;6.67;5.67;;;;;;;;5075973;28;45636;-83
2022/10/13 07:10:53;;;;;;;;;9.33;6.00;;;;;;;;5067684;28;45972;-84
2022/10/13 07:13:18;;;;;;;;;9.33;5.33;;;;;;;;5086190;28;45848;-85
2022/10/13 07:15:44;;;;;;;;;7.33;5.67;;;;;;;;5070907;27;48122;-82
2022/10/13 07:18:10;;;;;;;;;8.67;7.00;;;;;;;;5074752;28;44839;-85
2022/10/13 07:20:35;;;;;;;;;8.67;6.67;;;;;;;;5074385;28;44851;-84
2022/10/13 07:23:01;;;;;;;;;6.33;5.00;;;;;;;;5057021;28;45522;-82
2022/10/13 07:25:26;;;;;;;;;9.67;6.00;;;;;;;;5076346;28;45846;-83
2022/10/13 07:27:52;;;;;;;;;8.33;7.00;;;;;;;;5058466;28;44821;-83
2022/10/13 07:30:17;;;;;;;;;8.33;5.67;;;;;;;;5073667;28;44871;-84
2022/10/13 07:32:42;;;;;;;;;8.00;6.00;;;;;;;;5057481;28;45431;-84
2022/10/13 07:35:11;;;;;;;;;8.00;8.00;;;;;;;;5043143;28;47286;-84
2022/10/13 07:37:36;;;;;;;;;7.33;7.33;;;;;;;;5076196;28;44716;-84
2022/10/13 07:40:06;;;;;;;;;7.33;6.33;;;;;;;;5057394;28;44780;-80
2022/10/13 07:42:31;;;;;;;;;10.67;7.67;;;;;;;;5075106;28;45533;-83
2022/10/13 07:44:56;;;;;;;;;9.00;6.00;;;;;;;;5083311;28;45404;-80
2022/10/13 07:47:21;;;;;;;;;6.00;6.00;;;;;;;;5042470;28;45454;-78
2022/10/13 07:49:47;;;;;;;;;6.67;6.67;;;;;;;;5063031;28;45660;-80
2022/10/13 07:52:12;;;;;;;;;13.00;10.67;;;;;;;;5058970;28;45840;-80
2022/10/13 07:54:38;;;;;;;;;8.00;7.33;;;;;;;;5080889;28;46309;-79
2022/10/13 07:57:03;;;;;;;;;8.00;6.00;;;;;;;;5060558;28;44799;-80
2022/10/13 07:59:31;;;;;;;;;14.00;10.67;;;;;;;;5070696;28;45884;-81
2022/10/13 08:01:56;;;;;;;;;11.00;7.33;;;;;;;;5056584;28;45676;-80
2022/10/13 08:04:21;;;;;;;;;6.67;6.67;;;;;;;;5061130;28;45529;-81
2022/10/13 08:06:46;;;;;;;;;8.67;6.67;;;;;;;;5080944;28;45694;-81
2022/10/13 08:09:12;;;;;;;;;8.00;6.67;;;;;;;;5054665;28;45343;-80
2022/10/13 08:11:37;;;;;;;;;6.67;6.33;;;;;;;;5078584;27;45335;-81
2022/10/13 08:14:03;;;;;;;;;7.67;5.00;;;;;;;;5073055;28;45590;-80
2022/10/13 08:16:28;;;;;;;;;7.00;7.00;;;;;;;;5088295;27;45410;-79
2022/10/13 08:18:55;;;;;;;;;7.33;6.00;;;;;;;;5102189;27;45863;-81
2022/10/13 08:21:21;;;;;;;;;7.00;5.00;;;;;;;;5089430;27;45748;-81
2022/10/13 08:23:47;;;;;;;;;7.33;5.00;;;;;;;;5061468;28;45630;-78
2022/10/13 08:26:14;;;;;;;;;4.67;4.67;;;;;;;;5074329;27;45511;-76
2022/10/13 08:28:39;;;;;;;;;5.00;5.00;;;;;;;;5063505;27;45710;-74
2022/10/13 08:31:04;;;;;;;;;6.00;5.00;;;;;;;;5082312;27;45946;-76
2022/10/13 08:33:30;;;;;;;;;4.67;4.67;;;;;;;;5085969;27;45667;-76
2022/10/13 08:35:55;;;;;;;;;6.00;5.00;;;;;;;;5073795;27;45742;-74
2022/10/13 08:38:20;;;;;;;;;6.00;6.00;;;;;;;;5078641;28;45458;-74
2022/10/13 08:40:47;;;;;;;;;6.00;4.67;;;;;;;;5060461;28;45210;-76
2022/10/13 08:43:14;;;;;;;;;5.33;5.33;;;;;;;;5075718;27;45422;-77
2022/10/13 08:45:39;;;;;;;;;6.33;4.00;;;;;;;;5052863;28;45505;-76
2022/10/13 08:48:09;;;;;;;;;7.00;5.67;;;;;;;;5065547;27;45805;-76
2022/10/13 08:50:38;;;;;;;;;5.00;4.00;;;;;;;;5068317;27;45583;-75
2022/10/13 08:53:22;;;;;;;;;6.00;4.33;;;;;;;;5074776;28;45720;-74
2022/10/13 08:55:49;;;;;;;;;8.00;5.00;;;;;;;;5058686;28;45878;-76
2022/10/13 08:58:19;;;;;;;;;3.75;3.00;;;;;;;;5075800;27;45774;-74
2022/10/13 09:00:44;;;;;;;;;6.00;5.00;;;;;;;;5069663;28;44873;-73
2022/10/13 09:03:23;;;;;;;;;3.67;3.67;;;;;;;;5062358;27;46842;-76
2022/10/13 09:06:07;;;;;;;;;3.75;3.50;;;;;;;;5075043;27;45561;-75
2022/10/13 09:08:44;;;;;;;;;2.00;2.00;;;;;;;;5062095;28;45438;-77
2022/10/13 09:11:10;;;;;;;;;3.00;3.00;;;;;;;;5065674;28;45520;-76
2022/10/13 09:13:36;;;;;;;;;4.25;4.00;;;;;;;;5038092;28;46288;-77
2022/10/13 09:16:01;;;;;;;;;4.50;3.00;;;;;;;;5070014;28;45442;-76
2022/10/13 09:18:28;;;;;;;;;5.50;3.75;;;;;;;;5069003;28;45751;-76
2022/10/13 09:21:09;;;;;;;;;7.67;5.00;;;;;;;;5057684;28;45455;-76
2022/10/13 09:23:34;;;;;;;;;3.00;2.00;;;;;;;;5060222;28;46044;-76
2022/10/13 09:26:05;;;;;;;;;6.00;4.00;;;;;;;;5068167;28;45978;-77
2022/10/13 09:28:31;;;;;;;;;4.50;3.00;;;;;;;;5057590;28;45721;-76
2022/10/13 09:31:00;;;;;;;;;4.33;4.00;;;;;;;;5069096;28;45573;-77
2022/10/13 09:33:25;;;;;;;;;4.00;3.67;;;;;;;;5063850;28;46513;-77
2022/10/13 09:36:01;;;;;;;;;2.00;2.00;;;;;;;;5063406;28;45791;-75
2022/10/13 09:38:26;;;;;;;;;4.00;4.00;;;;;;;;5050651;28;45893;-76
2022/10/13 09:41:10;;;;;;;;;4.67;3.33;;;;;;;;5052222;28;45432;-77
2022/10/13 09:43:39;;;;;;;;;4.75;3.75;;;;;;;;5057387;28;45903;-76
2022/10/13 09:46:15;;;;;;;;;4.00;2.00;;;;;;;;5053483;28;46422;-76
2022/10/13 09:48:44;;;;;;;;;3.00;3.00;;;;;;;;5066276;28;45754;-76
2022/10/13 09:51:26;;;;;;;;;3.67;3.67;;;;;;;;5048140;28;46480;-76
2022/10/13 09:53:51;;;;;;;;;5.00;3.00;;;;;;;;5052426;28;45261;-76
2022/10/13 09:56:19;;;;;;;;;3.67;3.00;;;;;;;;5067199;28;45916;-77
2022/10/13 09:58:51;;;;;;;;;2.00;2.00;;;;;;;;5069291;28;45469;-77
2022/10/13 10:01:20;;;;;;;;;3.67;3.00;;;;;;;;5063153;28;46268;-79
2022/10/13 10:03:48;;;;;;;;;5.33;4.67;;;;;;;;5052209;28;45962;-77
2022/10/13 10:06:14;;;;;;;;;4.00;4.00;;;;;;;;5065727;28;45818;-77
2022/10/13 10:08:56;;;;;;;;;5.00;3.67;;;;;;;;5052330;28;45408;-75
2022/10/13 10:11:42;;;;;;;;;3.25;3.25;;;;;;;;5074570;27;45585;-77
2022/10/13 10:14:26;;;;;;;;;5.00;4.00;;;;;;;;5082763;27;46229;-78
2022/10/13 10:16:59;;;;;;;;;3.67;3.67;;;;;;;;5081826;27;45844;-78
2022/10/13 10:19:36;;;;;;;;;5.00;4.00;;;;;;;;5086821;27;45488;-78
2022/10/13 10:22:20;;;;;;;;;3.00;3.00;;;;;;;;5079382;27;45842;-77
2022/10/13 10:25:01;;;;;;;;;5.33;3.67;;;;;;;;5088906;27;46063;-77
2022/10/13 10:27:29;;;;;;;;;4.00;4.00;;;;;;;;5087208;27;45986;-77
2022/10/13 10:29:58;;;;;;;;;6.00;3.00;;;;;;;;5095436;27;45459;-77
2022/10/13 10:32:41;;;;;;;;;6.67;4.00;;;;;;;;5086833;27;45514;-77
2022/10/13 10:35:33;;;;;;;;;5.50;2.50;;;;;;;;5077435;27;45455;-76
2022/10/13 10:38:06;;;;;;;;;4.00;3.00;;;;;;;;5082057;27;45373;-77
2022/10/13 10:40:35;;;;;;;;;7.25;4.50;;;;;;;;5083829;27;45533;-75
2022/10/13 10:43:06;;;;;;;;;11.67;6.67;;;;;;;;5063624;28;46421;-76
2022/10/13 10:45:39;;;;;;;;;4.00;4.00;;;;;;;;5083791;27;46896;-76
2022/10/13 10:48:16;;;;;;;;;5.00;5.00;;;;;;;;5074812;27;45604;-76
2022/10/13 10:50:46;;;;;;;;;4.00;4.00;;;;;;;;5086885;27;45567;-75
2022/10/13 10:53:21;;;;;;;;;3.00;3.00;;;;;;;;5059949;27;46142;-76
2022/10/13 10:55:54;;;;;;;;;4.75;4.75;;;;;;;;5058347;28;46789;-76
2022/10/13 10:58:46;;;;;;;;;5.00;4.25;;;;;;;;5082405;27;45493;-74
2022/10/13 11:01:35;;;;;;;;;1.67;1.67;;;;;;;;5037273;27;45355;-76
2022/10/13 11:04:12;;;;;;;;;6.33;6.33;;;;;;;;5071344;28;44966;-76
2022/10/13 11:06:38;;;;;;;;;10.00;5.33;;;;;;;;5074776;27;46593;-76
2022/10/13 11:09:04;;;;;;;;;5.00;3.50;;;;;;;;5066280;28;45578;-77
2022/10/13 11:11:31;;;;;;;;;5.00;5.00;;;;;;;;5076410;28;45810;-77
2022/10/13 11:14:05;;;;;;;;;3.00;3.00;;;;;;;;5066734;28;45568;-75
2022/10/13 11:16:33;;;;;;;;;4.00;4.00;;;;;;;;5076966;27;45348;-77
2022/10/13 11:19:07;;;;;;;;;2.67;2.67;;;;;;;;5062452;28;45521;-75
2022/10/13 11:21:53;;;;;;;;;4.33;4.33;;;;;;;;5077244;27;45352;-75
2022/10/13 11:24:35;;;;;;;;;4.67;4.00;;;;;;;;5064477;27;46663;-76
2022/10/13 11:27:06;;;;;;;;;4.00;4.00;;;;;;;;5058875;28;47720;-74
2022/10/13 11:29:56;;;;;;;;;7.67;5.00;;;;;;;;5074548;27;45473;-73
2022/10/13 11:35:17;;;;;;;;;4.00;4.00;;;;;;;;5075004;27;45604;-75
2022/10/13 11:38:01;;;;;;;;;7.00;6.00;;;;;;;;5072647;27;45671;-74
2022/10/13 11:40:36;;;;;;;;;6.67;6.00;;;;;;;;5072216;27;45324;-75
2022/10/13 11:43:19;;;;;;;;;5.00;5.00;;;;;;;;5064430;27;45897;-76
2022/10/13 11:45:44;;;;;;;;;5.67;5.00;;;;;;;;5078810;27;45437;-75
2022/10/13 11:48:22;;;;;;;;;6.67;5.33;;;;;;;;5061933;27;48015;-75
2022/10/13 11:51:00;;;;;;;;;4.67;4.67;;;;;;;;5076085;27;45808;-76
2022/10/13 11:53:26;;;;;;;;;7.00;6.00;;;;;;;;5074599;27;45704;-75
2022/10/13 11:56:00;;;;;;;;;6.33;6.33;;;;;;;;5062226;28;46115;-76
2022/10/13 11:58:30;;;;;;;;;7.00;7.00;;;;;;;;5060308;28;47321;-75
2022/10/13 12:00:57;;;;;;;;;6.33;5.00;;;;;;;;5041589;28;45641;-75
2022/10/13 12:03:30;;;;;;;;;8.67;8.67;;;;;;;;5083643;27;45795;-74
2022/10/13 12:05:58;;;;;;;;;5.67;5.67;;;;;;;;5064695;28;45482;-75
2022/10/13 12:08:27;;;;;;;;;6.00;6.00;;;;;;;;5064207;28;47261;-76
2022/10/13 12:10:56;;;;;;;;;9.00;7.33;;;;;;;;5084290;27;45798;-76
2022/10/13 12:13:23;;;;;;;;;4.67;4.67;;;;;;;;5066219;28;45550;-80
2022/10/13 12:15:58;;;;;;;;;6.67;6.33;;;;;;;;5067870;28;45800;-79
2022/10/13 12:18:35;;;;;;;;;5.67;4.67;;;;;;;;5088237;27;45505;-80
2022/10/13 12:21:09;;;;;;;;;8.67;8.67;;;;;;;;5097491;27;45411;-78
2022/10/13 12:23:36;;;;;;;;;7.00;6.33;;;;;;;;5096019;27;45494;-78
2022/10/13 12:26:01;;;;;;;;;6.00;6.00;;;;;;;;5088605;28;45627;-79
2022/10/13 12:28:43;;;;;;;;;10.33;9.00;;;;;;;;5086841;28;45518;-79
2022/10/13 12:31:15;;;;;;;;;9.33;8.00;;;;;;;;5079506;27;45782;-79
2022/10/13 12:33:41;;;;;;;;;8.67;7.33;;;;;;;;5073771;28;45392;-79
2022/10/13 12:36:10;;;;;;;;;10.67;9.00;;;;;;;;5079047;27;45269;-78
2022/10/13 12:38:36;;;;;;;;;9.00;8.00;;;;;;;;5077456;27;46646;-78
2022/10/13 12:41:02;;;;;;;;;8.33;5.67;;;;;;;;5073849;27;45217;-78
2022/10/13 12:43:27;;;;;;;;;6.00;6.00;;;;;;;;5084630;28;44761;-80
2022/10/13 12:45:52;;;;;;;;;4.67;4.67;;;;;;;;5068110;28;45691;-80
2022/10/13 12:48:31;;;;;;;;;5.33;5.00;;;;;;;;5071705;28;45563;-77
2022/10/13 12:51:14;;;;;;;;;7.67;7.00;;;;;;;;5096653;27;45347;-79
2022/10/13 12:53:39;;;;;;;;;5.67;5.67;;;;;;;;5093924;27;45566;-78
2022/10/13 12:56:05;;;;;;;;;6.67;5.00;;;;;;;;5077504;27;45449;-79
2022/10/13 12:58:32;;;;;;;;;7.00;6.33;;;;;;;;5072296;27;48027;-80
2022/10/13 13:01:01;;;;;;;;;6.00;6.00;;;;;;;;5098144;27;45649;-78
2022/10/13 13:03:28;;;;;;;;;4.33;3.00;;;;;;;;5085897;28;45492;-78
2022/10/13 13:06:29;;;;;;;;;6.00;5.00;;;;;;;;5072809;28;45590;-79
2022/10/13 13:09:07;;;;;;;;;9.33;6.00;;;;;;;;5034984;28;46492;-80
2022/10/13 13:11:35;;;;;;;;;6.00;4.00;;;;;;;;5074617;27;45553;-79
2022/10/13 13:14:19;;;;;;;;;5.00;4.00;;;;;;;;5078083;28;45291;-79
2022/10/13 13:17:03;;;;;;;;;4.33;3.33;;;;;;;;5073341;28;45329;-79
2022/10/13 13:19:30;;;;;;;;;2.67;2.67;;;;;;;;5064740;27;46622;-80
2022/10/13 13:21:55;;;;;;;;;6.00;5.00;;;;;;;;5084263;27;44799;-79
2022/10/13 13:24:21;;;;;;;;;3.00;3.00;;;;;;;;5096741;27;45790;-79
2022/10/13 13:26:47;;;;;;;;;2.00;2.00;;;;;;;;5088529;27;45572;-79
2022/10/13 13:29:12;;;;;;;;;4.00;3.00;;;;;;;;5066143;28;45849;-79
2022/10/13 13:31:38;;;;;;;;;3.00;3.00;;;;;;;;5072057;27;45661;-80
2022/10/13 13:34:03;;;;;;;;;3.33;3.33;;;;;;;;5091597;27;44782;-79
2022/10/13 13:36:29;;;;;;;;;7.67;4.00;;;;;;;;5079914;27;45274;-79
2022/10/13 13:38:55;;;;;;;;;4.33;2.67;;;;;;;;5077530;27;46709;-78
2022/10/13 13:41:20;;;;;;;;;2.33;2.00;;;;;;;;5083442;28;45564;-79
2022/10/13 13:43:46;;;;;;;;;4.00;4.00;;;;;;;;5084482;27;45854;-79
2022/10/13 13:46:14;;;;;;;;;2.00;2.00;;;;;;;;5071413;28;45462;-74
2022/10/13 13:48:40;;;;;;;;;3.00;3.00;;;;;;;;5085337;27;45839;-74
2022/10/13 13:51:05;;;;;;;;;4.00;4.00;;;;;;;;5089791;27;45399;-75
2022/10/13 13:53:30;;;;;;;;;2.67;2.00;;;;;;;;5077776;28;45352;-74
2022/10/13 13:55:56;;;;;;;;;3.33;3.33;;;;;;;;5090237;27;45572;-75
2022/10/13 13:58:21;;;;;;;;;5.00;4.67;;;;;;;;5086345;27;45499;-76
2022/10/13 14:00:46;;;;;;;;;2.00;2.00;;;;;;;;5083721;28;45290;-75
2022/10/13 14:03:12;;;;;;;;;4.67;4.00;;;;;;;;5062300;28;45406;-75
2022/10/13 14:05:38;;;;;;;;;5.00;4.00;;;;;;;;5093689;27;45382;-77
2022/10/13 14:08:04;;;;;;;;;4.00;4.00;;;;;;;;5081976;28;45627;-74
2022/10/13 14:10:29;;;;;;;;;4.00;4.00;;;;;;;;5082224;28;45378;-76
2022/10/13 14:12:54;;;;;;;;;5.00;5.00;;;;;;;;5084251;27;45477;-74
2022/10/13 14:15:19;;;;;;;;;6.00;6.00;;;;;;;;5071141;28;45594;-75
2022/10/13 14:17:45;;;;;;;;;7.33;6.00;;;;;;;;5064034;28;47046;-75
2022/10/13 14:20:10;;;;;;;;;4.33;4.33;;;;;;;;5092061;27;45519;-74
2022/10/13 14:22:37;;;;;;;;;4.33;4.33;;;;;;;;5072400;27;45574;-76
2022/10/13 14:25:03;;;;;;;;;6.33;6.00;;;;;;;;5073626;27;45720;-76
2022/10/13 14:27:29;;;;;;;;;4.33;4.33;;;;;;;;5095909;27;45524;-76
2022/10/13 14:29:55;;;;;;;;;8.00;5.33;;;;;;;;5054511;28;45605;-76
2022/10/13 14:32:20;;;;;;;;;6.67;4.67;;;;;;;;5080780;27;45462;-76
2022/10/13 14:34:45;;;;;;;;;8.00;5.00;;;;;;;;5081150;28;45683;-77
2022/10/13 14:37:11;;;;;;;;;6.00;6.00;;;;;;;;5063559;28;46788;-76
2022/10/13 14:39:36;;;;;;;;;8.00;5.67;;;;;;;;5063910;28;45600;-75
2022/10/13 14:42:02;;;;;;;;;7.00;4.33;;;;;;;;5080629;28;45354;-76
2022/10/13 14:44:27;;;;;;;;;6.00;4.67;;;;;;;;5078594;28;45853;-75